Plato — 8PRX — position and weather

sailwx.info

Track history (hours):
 
Tides and Currents Weather Stations Pressure Air Temp Water Temp Dewpoint Dewpoint Depression Visibility Wind Speed Wind Dir Waves Ship Positions

Plato

Last reported at 2015-Sep-03 14:29 UTC. Time now 2015-Sep-03 21:27 UTC.
Position N 53°31' E 004°47'.

Length 88 m; draft 4.2 m.

Type: Ship. MMSI: 314189000.

Date/timePositionNaut miles runAvg speedWind from/ knotsBaromVisibWave heightAir tempDewpointWater temp
2015-Sep-03 14:29N 53°31' E 004°47'14 7.0
2015-Sep-03 12:30N 53°36' E 005°09'6 6.2
2015-Sep-03 11:33N 53°38' E 005°18'6 5.6
2015-Sep-03 10:33N 53°39' E 005°27'6 5.4
2015-Sep-03 09:32N 53°41' E 005°36'5 5.6
2015-Sep-03 08:33N 53°42' E 005°45'33 7.4
2015-Sep-03 04:06N 53°52' E 006°38'6 7.4
2015-Sep-03 03:16N 53°54' E 006°48'6 7.1
2015-Sep-03 02:26N 53°55' E 006°58'6 6.4
2015-Sep-03 01:32N 53°57' E 007°08'8 5.9
2015-Sep-03 00:16N 53°58' E 007°20'4 5.8
2015-Sep-02 23:32N 53°59' E 007°27'6 5.6
2015-Sep-02 22:33N 54°01' E 007°36'6 5.8
2015-Sep-02 21:33N 54°01' E 007°46'7 6.8
2015-Sep-02 20:33N 54°01' E 007°58'8 7.8
2015-Sep-02 19:33N 54°01' E 008°11'9 9.0
2015-Sep-02 18:33N 53°59' E 008°26'1111.0
2015-Sep-02 17:33N 53°54' E 008°42'9 9.4
2015-Sep-02 16:33N 53°51' E 008°57'7 7.3
2015-Sep-02 15:33N 53°54' E 009°09'5 4.6
2015-Sep-02 14:34N 53°57' E 009°14'6 5.9
2015-Sep-02 13:30N 54°03' E 009°18'15 7.9
2015-Sep-02 11:33N 54°14' E 009°36'7 7.4
2015-Sep-02 10:33N 54°20' E 009°44'8 7.7
2015-Sep-02 09:33N 54°20' E 009°57'4 4.5
2015-Sep-02 08:33N 54°22' E 010°04'3 2.6
2015-Sep-02 07:33N 54°22' E 010°08'  
2015-Aug-30 19:06N 55°51' E 009°52'  
2015-Aug-28 08:24N 58°16' E 006°16'4 0.3
2015-Aug-27 16:33N 58°20' E 006°16'10 5.2
2015-Aug-27 14:33N 58°22' E 005°56'7 7.1
2015-Aug-27 13:33N 58°27' E 005°46'22 6.8
2015-Aug-27 10:19N 58°46' E 005°25'6 7.7
2015-Aug-27 09:33N 58°51' E 005°30'9 8.5
2015-Aug-27 08:34N 58°60' E 005°33'7 6.7
2015-Aug-27 07:33N 59°00' E 005°46'4 3.8
2015-Aug-27 06:33N 58°57' E 005°45'0 0.0
2015-Aug-27 05:33N 58°57' E 005°45'0 0.0
2015-Aug-27 04:33N 58°57' E 005°45'0 0.0
2015-Aug-27 03:33N 58°57' E 005°45'0 0.0
2015-Aug-27 02:33N 58°57' E 005°45'0 0.0
2015-Aug-27 01:33N 58°57' E 005°45'0 0.0
2015-Aug-27 00:33N 58°57' E 005°45'0 0.0
2015-Aug-26 23:33N 58°57' E 005°45'0 0.0
2015-Aug-26 22:33N 58°57' E 005°45'0 0.0
2015-Aug-26 21:33N 58°57' E 005°45'0 0.0
2015-Aug-26 20:33N 58°57' E 005°45'0 0.0
2015-Aug-26 19:33N 58°57' E 005°45'0 0.0
2015-Aug-26 18:33N 58°57' E 005°45'0 0.0
2015-Aug-26 17:33N 58°57' E 005°45'0 0.0
2015-Aug-26 16:33N 58°57' E 005°45'0 0.0
2015-Aug-26 15:33N 58°57' E 005°45'0 0.0
2015-Aug-26 14:33N 58°57' E 005°45'0 0.0
2015-Aug-26 13:33N 58°57' E 005°45'0 0.0
2015-Aug-26 12:33N 58°57' E 005°45'0 0.0
2015-Aug-26 11:33N 58°57' E 005°45'0 0.0
2015-Aug-26 10:33N 58°57' E 005°45'0 0.0
2015-Aug-26 09:33N 58°57' E 005°45'0 0.0
2015-Aug-26 08:33N 58°57' E 005°45'0 0.0
2015-Aug-26 07:33N 58°57' E 005°45'0 0.0
2015-Aug-26 06:33N 58°57' E 005°45'0 0.0
2015-Aug-26 05:33N 58°57' E 005°45'0 0.0
2015-Aug-26 04:33N 58°57' E 005°45'0 0.0
2015-Aug-26 03:33N 58°57' E 005°45'0 0.0
2015-Aug-26 02:33N 58°57' E 005°45'0 0.0
2015-Aug-26 01:33N 58°57' E 005°45'0 0.0
2015-Aug-26 00:33N 58°57' E 005°45'0 0.0
2015-Aug-25 23:33N 58°57' E 005°45'0 0.0
2015-Aug-25 22:33N 58°57' E 005°45'0 0.0
2015-Aug-25 21:34N 58°57' E 005°45'0 0.0
2015-Aug-25 20:33N 58°57' E 005°45'0 0.0
2015-Aug-25 19:33N 58°57' E 005°45'0 0.0
2015-Aug-25 18:33N 58°57' E 005°45'0 0.0
2015-Aug-25 17:33N 58°57' E 005°45'4 4.0
2015-Aug-25 16:33N 59°01' E 005°46'7 6.6
2015-Aug-25 15:33N 58°59' E 005°33'9 9.1
2015-Aug-25 14:33N 58°50' E 005°30'20 8.9
2015-Aug-25 12:16N 58°30' E 005°36'810.7
2015-Aug-25 11:32N 58°25' E 005°46'1010.3
2015-Aug-25 10:31N 58°17' E 006°00'10 9.9
2015-Aug-25 09:33N 58°10' E 006°13'  
Track history (hours):
 
Tides and Currents Weather Stations Pressure Air Temp Water Temp Dewpoint Dewpoint Depression Visibility Wind Speed Wind Dir Waves Ship Positions

Plato

Last reported at 2015-Sep-03 14:29 UTC. Time now 2015-Sep-03 21:27 UTC.
Position N 53°31' E 004°47'.

Length 88 m; draft 4.2 m.

Type: Ship. MMSI: 314189000.

Date/timePositionNaut miles runAvg speedWind from/ knotsBaromVisibWave heightAir tempDewpointWater temp
2015-Sep-03 14:29N 53°31' E 004°47'14 7.0
2015-Sep-03 12:30N 53°36' E 005°09'6 6.2
2015-Sep-03 11:33N 53°38' E 005°18'6 5.6
2015-Sep-03 10:33N 53°39' E 005°27'6 5.4
2015-Sep-03 09:32N 53°41' E 005°36'5 5.6
2015-Sep-03 08:33N 53°42' E 005°45'33 7.4
2015-Sep-03 04:06N 53°52' E 006°38'6 7.4
2015-Sep-03 03:16N 53°54' E 006°48'6 7.1
2015-Sep-03 02:26N 53°55' E 006°58'6 6.4
2015-Sep-03 01:32N 53°57' E 007°08'8 5.9
2015-Sep-03 00:16N 53°58' E 007°20'4 5.8
2015-Sep-02 23:32N 53°59' E 007°27'6 5.6
2015-Sep-02 22:33N 54°01' E 007°36'6 5.8
2015-Sep-02 21:33N 54°01' E 007°46'7 6.8
2015-Sep-02 20:33N 54°01' E 007°58'8 7.8
2015-Sep-02 19:33N 54°01' E 008°11'9 9.0
2015-Sep-02 18:33N 53°59' E 008°26'1111.0
2015-Sep-02 17:33N 53°54' E 008°42'9 9.4
2015-Sep-02 16:33N 53°51' E 008°57'7 7.3
2015-Sep-02 15:33N 53°54' E 009°09'5 4.6
2015-Sep-02 14:34N 53°57' E 009°14'6 5.9
2015-Sep-02 13:30N 54°03' E 009°18'15 7.9
2015-Sep-02 11:33N 54°14' E 009°36'7 7.4
2015-Sep-02 10:33N 54°20' E 009°44'8 7.7
2015-Sep-02 09:33N 54°20' E 009°57'4 4.5
2015-Sep-02 08:33N 54°22' E 010°04'3 2.6
2015-Sep-02 07:33N 54°22' E 010°08'  
2015-Aug-30 19:06N 55°51' E 009°52'  
2015-Aug-28 08:24N 58°16' E 006°16'4 0.3
2015-Aug-27 16:33N 58°20' E 006°16'10 5.2
2015-Aug-27 14:33N 58°22' E 005°56'7 7.1
2015-Aug-27 13:33N 58°27' E 005°46'22 6.8
2015-Aug-27 10:19N 58°46' E 005°25'6 7.7
2015-Aug-27 09:33N 58°51' E 005°30'9 8.5
2015-Aug-27 08:34N 58°60' E 005°33'7 6.7
2015-Aug-27 07:33N 59°00' E 005°46'4 3.8
2015-Aug-27 06:33N 58°57' E 005°45'0 0.0
2015-Aug-27 05:33N 58°57' E 005°45'0 0.0
2015-Aug-27 04:33N 58°57' E 005°45'0 0.0
2015-Aug-27 03:33N 58°57' E 005°45'0 0.0
2015-Aug-27 02:33N 58°57' E 005°45'0 0.0
2015-Aug-27 01:33N 58°57' E 005°45'0 0.0
2015-Aug-27 00:33N 58°57' E 005°45'0 0.0
2015-Aug-26 23:33N 58°57' E 005°45'0 0.0
2015-Aug-26 22:33N 58°57' E 005°45'0 0.0
2015-Aug-26 21:33N 58°57' E 005°45'0 0.0
2015-Aug-26 20:33N 58°57' E 005°45'0 0.0
2015-Aug-26 19:33N 58°57' E 005°45'0 0.0
2015-Aug-26 18:33N 58°57' E 005°45'0 0.0
2015-Aug-26 17:33N 58°57' E 005°45'0 0.0
2015-Aug-26 16:33N 58°57' E 005°45'0 0.0
2015-Aug-26 15:33N 58°57' E 005°45'0 0.0
2015-Aug-26 14:33N 58°57' E 005°45'0 0.0
2015-Aug-26 13:33N 58°57' E 005°45'0 0.0
2015-Aug-26 12:33N 58°57' E 005°45'0 0.0
2015-Aug-26 11:33N 58°57' E 005°45'0 0.0
2015-Aug-26 10:33N 58°57' E 005°45'0 0.0
2015-Aug-26 09:33N 58°57' E 005°45'0 0.0
2015-Aug-26 08:33N 58°57' E 005°45'0 0.0
2015-Aug-26 07:33N 58°57' E 005°45'0 0.0
2015-Aug-26 06:33N 58°57' E 005°45'0 0.0
2015-Aug-26 05:33N 58°57' E 005°45'0 0.0
2015-Aug-26 04:33N 58°57' E 005°45'0 0.0
2015-Aug-26 03:33N 58°57' E 005°45'0 0.0
2015-Aug-26 02:33N 58°57' E 005°45'0 0.0
2015-Aug-26 01:33N 58°57' E 005°45'0 0.0
2015-Aug-26 00:33N 58°57' E 005°45'0 0.0
2015-Aug-25 23:33N 58°57' E 005°45'0 0.0
2015-Aug-25 22:33N 58°57' E 005°45'0 0.0
2015-Aug-25 21:34N 58°57' E 005°45'0 0.0
2015-Aug-25 20:33N 58°57' E 005°45'0 0.0
2015-Aug-25 19:33N 58°57' E 005°45'0 0.0
2015-Aug-25 18:33N 58°57' E 005°45'0 0.0
2015-Aug-25 17:33N 58°57' E 005°45'4 4.0
2015-Aug-25 16:33N 59°01' E 005°46'7 6.6
2015-Aug-25 15:33N 58°59' E 005°33'9 9.1
2015-Aug-25 14:33N 58°50' E 005°30'20 8.9
2015-Aug-25 12:16N 58°30' E 005°36'810.7
2015-Aug-25 11:32N 58°25' E 005°46'1010.3
2015-Aug-25 10:31N 58°17' E 006°00'10 9.9
2015-Aug-25 09:33N 58°10' E 006°13'  

Dump ship's entire track history